Time;durP1;ratioP1;P1;durP2;ratioP2;P2;SDS_P1;SDS_P2;PMS_P1;PMS_P2;Temp;Humidity;BMP_temperature;BMP_pressure;BME280_temperature;BME280_humidity;BME280_pressure;Samples;Min_cycle;Max_cycle;Signal;HPM_P1;HPM_P2
2024/03/04 00:00:37;;;;;;;23.27;12.57;;;6.70;99.90;;;;;;5034149;28;20032;-64
2024/03/04 00:03:03;;;;;;;27.67;11.10;;;6.70;99.90;;;;;;5029307;28;20105;-65
2024/03/04 00:05:29;;;;;;;25.55;12.35;;;6.80;99.90;;;;;;5029184;28;20021;-64
2024/03/04 00:07:54;;;;;;;22.60;10.93;;;6.80;99.90;;;;;;5031748;28;20503;-64
2024/03/04 00:10:20;;;;;;;26.60;11.63;;;6.80;99.90;;;;;;5036620;28;20036;-64
2024/03/04 00:12:46;;;;;;;24.70;11.57;;;6.80;99.90;;;;;;5033635;28;20034;-65
2024/03/04 00:15:13;;;;;;;25.50;11.43;;;6.70;99.90;;;;;;5032262;28;20080;-65
2024/03/04 00:17:40;;;;;;;26.27;10.85;;;6.80;99.90;;;;;;5033906;28;20074;-65
2024/03/04 00:20:06;;;;;;;25.73;10.48;;;6.70;99.90;;;;;;5034973;28;20025;-64
2024/03/04 00:22:33;;;;;;;26.13;12.13;;;6.80;99.90;;;;;;5033521;28;20026;-64
2024/03/04 00:24:59;;;;;;;22.17;9.98;;;6.80;99.90;;;;;;5040642;28;20040;-66
2024/03/04 00:27:25;;;;;;;22.70;11.07;;;6.80;99.90;;;;;;5035383;28;20048;-64
2024/03/04 00:29:51;;;;;;;26.42;12.48;;;6.80;99.90;;;;;;5035125;28;20059;-66
2024/03/04 00:32:16;;;;;;;27.35;12.18;;;6.80;99.90;;;;;;5036854;28;20038;-67
2024/03/04 00:34:42;;;;;;;29.80;12.57;;;6.90;99.90;;;;;;5034174;28;20059;-64
2024/03/04 00:37:08;;;;;;;24.08;11.10;;;6.90;99.90;;;;;;5038755;28;20045;-65
2024/03/04 00:39:35;;;;;;;22.13;11.40;;;6.90;99.90;;;;;;5036445;28;20077;-64
2024/03/04 00:42:00;;;;;;;25.83;12.13;;;6.90;99.90;;;;;;5034452;28;20049;-64
2024/03/04 00:44:26;;;;;;;23.10;11.68;;;6.80;99.90;;;;;;5031158;28;20346;-64
2024/03/04 00:46:51;;;;;;;26.75;10.82;;;6.90;99.90;;;;;;5031498;28;20041;-64
2024/03/04 00:49:16;;;;;;;24.90;11.32;;;6.80;99.90;;;;;;5033717;28;20029;-63
2024/03/04 00:51:42;;;;;;;24.17;11.35;;;6.80;99.90;;;;;;5032235;28;20488;-64
2024/03/04 00:54:07;;;;;;;23.08;11.57;;;6.90;99.90;;;;;;5031481;28;20034;-64
2024/03/04 00:56:33;;;;;;;28.38;12.07;;;6.80;99.90;;;;;;5036521;28;20033;-64
2024/03/04 00:58:59;;;;;;;21.35;10.27;;;6.80;99.90;;;;;;5032958;28;20030;-65
2024/03/04 01:01:24;;;;;;;25.35;12.00;;;6.80;99.90;;;;;;5031344;28;20033;-64
2024/03/04 01:03:50;;;;;;;23.20;11.38;;;6.90;99.90;;;;;;5042382;28;20059;-63
2024/03/04 01:06:16;;;;;;;27.02;11.35;;;6.90;99.90;;;;;;5031431;28;20128;-64
2024/03/04 01:08:42;;;;;;;21.95;11.02;;;6.90;99.90;;;;;;5035868;28;20037;-64
2024/03/04 01:11:07;;;;;;;27.15;12.48;;;6.90;99.90;;;;;;5037614;28;20116;-65
2024/03/04 01:13:33;;;;;;;30.17;11.07;;;6.90;99.90;;;;;;5031035;28;20120;-64
2024/03/04 01:15:58;;;;;;;20.70;11.02;;;6.90;99.90;;;;;;5032639;28;20129;-65
2024/03/04 01:18:24;;;;;;;26.70;11.27;;;7.00;99.90;;;;;;5036157;28;20118;-64
2024/03/04 01:20:52;;;;;;;23.77;11.65;;;7.00;99.90;;;;;;5038835;28;20036;-64
2024/03/04 01:23:17;;;;;;;24.73;11.48;;;7.00;99.90;;;;;;5033465;28;20128;-64
2024/03/04 01:25:44;;;;;;;32.58;12.32;;;7.00;99.90;;;;;;5039046;28;20483;-64
2024/03/04 01:28:09;;;;;;;21.02;11.13;;;7.00;99.90;;;;;;5030599;28;20120;-64
2024/03/04 01:30:35;;;;;;;29.13;12.48;;;7.00;99.90;;;;;;5038200;28;20093;-64
2024/03/04 01:33:03;;;;;;;27.90;12.50;;;7.00;99.90;;;;;;5034788;28;20080;-66
2024/03/04 01:35:29;;;;;;;22.20;11.07;;;7.00;99.90;;;;;;5033250;28;20033;-65
2024/03/04 01:37:54;;;;;;;28.42;11.70;;;7.00;99.90;;;;;;5032261;28;20025;-64
2024/03/04 01:40:19;;;;;;;24.20;10.60;;;7.00;99.90;;;;;;5047355;28;20489;-64
2024/03/04 01:42:45;;;;;;;22.85;11.70;;;7.00;99.90;;;;;;5030444;28;20179;-64
2024/03/04 01:45:23;;;;;;;26.10;10.85;;;6.90;99.90;;;;;;5032612;28;20036;-64
2024/03/04 01:47:49;;;;;;;22.17;10.02;;;6.90;99.90;;;;;;5031681;28;20089;-66
2024/03/04 01:50:15;;;;;;;28.50;11.50;;;7.00;99.90;;;;;;5035197;28;20127;-65
2024/03/04 01:52:40;;;;;;;24.55;11.48;;;6.90;99.90;;;;;;5034164;28;20033;-65
2024/03/04 01:55:06;;;;;;;25.10;12.23;;;7.00;99.90;;;;;;5038396;28;20397;-64
2024/03/04 01:57:32;;;;;;;22.85;11.52;;;7.00;99.90;;;;;;5034350;28;20128;-63
2024/03/04 01:59:58;;;;;;;28.40;11.77;;;7.00;99.90;;;;;;5039388;28;20056;-65
2024/03/04 02:02:24;;;;;;;25.63;11.57;;;6.90;99.90;;;;;;5036197;28;20396;-64
2024/03/04 02:04:49;;;;;;;25.13;12.10;;;6.90;99.90;;;;;;5032344;28;20102;-64
2024/03/04 02:07:17;;;;;;;24.98;10.57;;;6.90;99.90;;;;;;5037670;28;20216;-64
2024/03/04 02:09:43;;;;;;;29.65;12.30;;;6.90;99.90;;;;;;5038377;28;20382;-64
2024/03/04 02:12:09;;;;;;;24.30;11.43;;;6.90;99.90;;;;;;5036002;28;20033;-64
2024/03/04 02:14:36;;;;;;;23.08;11.63;;;6.90;99.90;;;;;;5036041;28;20029;-64
2024/03/04 02:17:01;;;;;;;25.10;11.43;;;6.90;99.90;;;;;;5037744;28;20029;-64
2024/03/04 02:19:27;;;;;;;27.75;11.63;;;7.00;99.90;;;;;;5035000;28;20033;-65
2024/03/04 02:22:02;;;;;;;24.42;11.70;;;7.00;99.90;;;;;;5039563;28;20481;-64
2024/03/04 02:24:27;;;;;;;22.85;11.90;;;7.00;99.90;;;;;;5040271;28;20045;-64
2024/03/04 02:26:53;;;;;;;25.92;11.25;;;6.90;99.90;;;;;;5036369;28;20033;-64
2024/03/04 02:29:18;;;;;;;27.42;11.10;;;6.90;99.90;;;;;;5037506;28;20059;-64
2024/03/04 02:31:45;;;;;;;25.80;11.93;;;6.80;99.90;;;;;;5039944;28;20083;-64
2024/03/04 02:34:13;;;;;;;23.77;12.15;;;6.80;99.90;;;;;;5032104;28;20858;-64
2024/03/04 02:36:40;;;;;;;25.67;11.93;;;6.80;99.90;;;;;;5038845;28;20463;-64
2024/03/04 02:39:10;;;;;;;28.30;12.82;;;6.70;99.90;;;;;;5041937;28;20094;-64
2024/03/04 02:41:38;;;;;;;32.90;14.20;;;6.60;99.90;;;;;;5040513;28;20049;-64
2024/03/04 02:44:04;;;;;;;26.92;12.30;;;6.60;99.80;;;;;;5028230;28;20025;-65
2024/03/04 02:46:30;;;;;;;28.30;11.57;;;6.30;99.80;;;;;;5040372;28;20342;-64
2024/03/04 02:48:56;;;;;;;29.95;12.10;;;6.20;99.90;;;;;;5041770;28;20043;-63
2024/03/04 02:51:21;;;;;;;28.48;11.27;;;6.10;99.90;;;;;;5040794;28;20437;-63
2024/03/04 02:53:47;;;;;;;25.45;11.55;;;6.10;99.90;;;;;;5034543;28;20105;-64
2024/03/04 02:56:12;;;;;;;25.08;11.55;;;6.10;99.90;;;;;;5036431;28;20033;-64
2024/03/04 02:58:38;;;;;;;29.38;12.10;;;6.20;99.90;;;;;;5031070;28;20056;-64
2024/03/04 03:01:03;;;;;;;27.15;11.10;;;6.30;99.90;;;;;;5035717;28;20029;-64
2024/03/04 03:03:29;;;;;;;28.48;11.45;;;6.30;99.90;;;;;;5029011;28;20488;-65
2024/03/04 03:05:54;;;;;;;24.73;11.95;;;6.30;99.90;;;;;;5032329;28;20427;-64
2024/03/04 03:08:20;;;;;;;29.00;12.95;;;6.30;99.90;;;;;;5033200;28;20041;-64
2024/03/04 03:10:46;;;;;;;23.50;11.10;;;6.20;99.90;;;;;;5031403;28;20048;-64
2024/03/04 03:13:12;;;;;;;25.85;12.93;;;6.20;99.90;;;;;;5035991;28;20028;-64
2024/03/04 03:15:38;;;;;;;29.80;12.82;;;6.30;99.90;;;;;;5036227;28;20077;-64
2024/03/04 03:18:06;;;;;;;22.58;11.75;;;6.30;99.90;;;;;;5041994;28;20469;-65
2024/03/04 03:20:32;;;;;;;25.58;12.00;;;6.30;99.90;;;;;;5041015;28;20064;-64
2024/03/04 03:22:57;;;;;;;28.05;12.13;;;6.30;99.90;;;;;;5039274;28;20025;-64
2024/03/04 03:25:23;;;;;;;25.10;11.90;;;6.30;99.90;;;;;;5037301;28;20547;-64
2024/03/04 03:27:48;;;;;;;25.98;12.82;;;6.30;99.90;;;;;;5029590;28;20084;-65
2024/03/04 03:30:14;;;;;;;29.30;12.50;;;6.20;99.90;;;;;;5034943;28;20486;-64
2024/03/04 03:32:40;;;;;;;26.08;12.65;;;6.10;99.90;;;;;;5039639;28;20030;-64
2024/03/04 03:35:06;;;;;;;30.08;11.50;;;6.00;99.90;;;;;;5036168;28;20156;-64
2024/03/04 03:37:34;;;;;;;25.60;11.93;;;6.00;99.90;;;;;;5043269;28;20037;-64
2024/03/04 03:39:59;;;;;;;27.52;13.30;;;5.80;99.90;;;;;;5036995;28;20346;-64
2024/03/04 03:42:25;;;;;;;29.67;12.65;;;5.70;99.90;;;;;;5038428;28;20073;-65
2024/03/04 03:44:50;;;;;;;24.52;12.38;;;5.60;99.90;;;;;;5035705;28;20118;-64
2024/03/04 03:47:16;;;;;;;26.48;13.25;;;5.60;99.90;;;;;;5031186;28;20068;-64
2024/03/04 03:49:41;;;;;;;30.98;13.27;;;5.60;99.90;;;;;;5037559;28;20155;-66
2024/03/04 03:52:07;;;;;;;28.00;12.73;;;5.60;99.90;;;;;;5031426;28;20849;-64
2024/03/04 03:54:32;;;;;;;28.30;13.20;;;5.60;99.90;;;;;;5029880;28;20111;-64
2024/03/04 03:56:58;;;;;;;28.83;13.30;;;5.50;99.90;;;;;;5028475;28;20037;-64
2024/03/04 03:59:23;;;;;;;29.55;13.00;;;5.40;99.90;;;;;;5032569;28;20495;-64
2024/03/04 04:01:49;;;;;;;26.75;12.23;;;5.40;99.90;;;;;;5027005;28;20037;-64
2024/03/04 04:04:14;;;;;;;30.40;13.05;;;5.30;99.90;;;;;;5037749;28;20025;-64
2024/03/04 04:06:40;;;;;;;28.58;13.13;;;5.30;99.90;;;;;;5039281;28;20036;-64
2024/03/04 04:09:06;;;;;;;27.50;11.73;;;5.20;99.90;;;;;;5031234;28;21029;-64
2024/03/04 04:11:32;;;;;;;27.88;13.13;;;5.10;99.90;;;;;;5034184;28;20044;-64
2024/03/04 04:13:58;;;;;;;30.45;12.10;;;5.10;99.90;;;;;;5036812;28;20080;-65
2024/03/04 04:16:27;;;;;;;26.38;12.65;;;5.00;99.90;;;;;;5031903;28;20120;-64
2024/03/04 04:18:53;;;;;;;29.67;12.95;;;5.00;99.90;;;;;;5032644;28;20117;-64
2024/03/04 04:21:20;;;;;;;29.70;13.60;;;5.00;99.90;;;;;;5029932;28;20033;-66
2024/03/04 04:23:46;;;;;;;32.28;12.60;;;4.90;99.90;;;;;;5042475;28;20426;-64
2024/03/04 04:26:11;;;;;;;31.42;13.18;;;4.90;99.90;;;;;;5042127;28;20131;-64
2024/03/04 04:28:37;;;;;;;31.02;13.35;;;4.90;99.90;;;;;;5034102;28;20102;-64
2024/03/04 04:31:02;;;;;;;24.65;12.07;;;5.00;99.90;;;;;;5027876;28;20147;-64
2024/03/04 04:33:29;;;;;;;28.83;12.60;;;4.90;99.90;;;;;;5029489;28;20091;-64
2024/03/04 04:35:54;;;;;;;28.17;12.70;;;5.00;99.90;;;;;;5030680;28;20334;-63
2024/03/04 04:38:20;;;;;;;28.05;13.00;;;5.10;99.90;;;;;;5033107;28;20041;-64
2024/03/04 04:40:46;;;;;;;28.77;14.20;;;5.20;99.90;;;;;;5032885;28;20056;-64
2024/03/04 04:43:11;;;;;;;29.85;14.23;;;5.10;99.90;;;;;;5032574;28;20045;-64
2024/03/04 04:45:37;;;;;;;33.85;13.63;;;5.10;99.90;;;;;;5030231;28;20087;-63
2024/03/04 04:48:02;;;;;;;31.55;15.13;;;5.10;99.90;;;;;;5024786;28;20163;-64
2024/03/04 04:50:28;;;;;;;26.08;13.45;;;5.20;99.90;;;;;;5030482;28;20037;-64
2024/03/04 04:52:54;;;;;;;32.63;14.07;;;5.10;99.90;;;;;;5033001;28;20028;-64
2024/03/04 04:55:19;;;;;;;30.42;13.65;;;5.10;99.90;;;;;;5047658;28;20037;-64
2024/03/04 04:57:45;;;;;;;30.45;12.75;;;5.10;99.90;;;;;;5034199;28;20203;-64
2024/03/04 05:00:12;;;;;;;26.67;13.65;;;5.10;99.90;;;;;;5032908;28;20086;-63
2024/03/04 05:02:38;;;;;;;29.10;12.88;;;5.00;99.90;;;;;;5036131;28;20025;-63
2024/03/04 05:05:03;;;;;;;36.15;13.32;;;5.00;99.90;;;;;;5026665;28;20492;-63
2024/03/04 05:07:29;;;;;;;27.35;12.57;;;4.80;99.90;;;;;;5032730;28;20053;-64
2024/03/04 05:09:55;;;;;;;29.27;12.43;;;4.70;99.90;;;;;;5032928;28;20028;-66
2024/03/04 05:12:21;;;;;;;36.92;14.18;;;4.60;99.90;;;;;;5029993;28;20032;-64
2024/03/04 05:14:46;;;;;;;29.50;13.35;;;4.60;99.90;;;;;;5037960;28;20079;-64
2024/03/04 05:17:12;;;;;;;27.73;12.65;;;4.60;99.90;;;;;;5035413;28;20532;-64
2024/03/04 05:19:37;;;;;;;31.52;12.75;;;4.40;99.90;;;;;;5038454;28;20033;-63
2024/03/04 05:22:03;;;;;;;27.80;11.23;;;4.40;99.90;;;;;;5034335;28;20052;-63
2024/03/04 05:24:29;;;;;;;24.20;12.13;;;4.30;99.90;;;;;;5035237;28;20029;-63
2024/03/04 05:26:55;;;;;;;32.03;13.00;;;4.20;99.90;;;;;;5031324;28;20444;-63
2024/03/04 05:29:20;;;;;;;31.17;13.15;;;4.10;99.90;;;;;;5033975;28;20040;-62
2024/03/04 05:31:53;;;;;;;28.23;12.00;;;4.10;99.90;;;;;;5030803;28;20068;-62
2024/03/04 05:34:20;;;;;;;29.23;14.00;;;4.10;99.90;;;;;;5037321;28;20048;-62
2024/03/04 05:36:45;;;;;;;26.98;12.00;;;4.10;99.90;;;;;;5035255;28;20115;-62
2024/03/04 05:39:11;;;;;;;33.17;13.60;;;4.10;99.90;;;;;;5037999;28;20083;-61
2024/03/04 05:41:39;;;;;;;34.42;13.55;;;4.00;99.90;;;;;;5032857;28;20465;-62
2024/03/04 05:44:05;;;;;;;30.73;13.10;;;4.00;99.90;;;;;;5037242;28;20104;-62
2024/03/04 05:46:30;;;;;;;29.92;13.63;;;3.90;99.90;;;;;;5031279;28;20250;-62
2024/03/04 05:48:56;;;;;;;35.47;13.55;;;3.90;99.90;;;;;;5035545;28;20037;-62
2024/03/04 05:51:21;;;;;;;29.02;13.15;;;3.80;99.90;;;;;;5032808;28;20115;-62
2024/03/04 05:53:48;;;;;;;28.85;13.77;;;3.80;99.90;;;;;;5039104;28;20033;-62
2024/03/04 05:56:14;;;;;;;30.40;13.35;;;3.70;99.90;;;;;;5031937;28;20582;-62
2024/03/04 05:58:40;;;;;;;34.30;12.63;;;3.70;99.90;;;;;;5033146;28;20503;-61
2024/03/04 06:01:06;;;;;;;33.00;13.07;;;3.60;99.90;;;;;;5035936;28;20168;-62
2024/03/04 06:03:31;;;;;;;27.00;12.40;;;3.60;99.90;;;;;;5033769;28;20457;-61
2024/03/04 06:05:57;;;;;;;26.20;13.65;;;3.60;99.90;;;;;;5035391;28;20402;-62
2024/03/04 06:08:22;;;;;;;30.15;13.38;;;3.60;99.90;;;;;;5042409;28;20474;-61
2024/03/04 06:10:48;;;;;;;28.15;13.20;;;3.60;99.90;;;;;;5041639;28;20132;-61
2024/03/04 06:13:14;;;;;;;31.60;13.02;;;3.60;99.90;;;;;;5037675;28;20037;-62
2024/03/04 06:15:39;;;;;;;31.27;13.45;;;3.70;99.90;;;;;;5035303;28;20075;-63
2024/03/04 06:18:05;;;;;;;33.65;13.40;;;3.80;99.90;;;;;;5043891;28;20036;-62
2024/03/04 06:20:30;;;;;;;32.78;14.18;;;3.90;99.90;;;;;;5038460;28;20105;-62
2024/03/04 06:22:56;;;;;;;28.95;13.38;;;4.10;99.90;;;;;;5030723;28;20113;-61
2024/03/04 06:25:22;;;;;;;25.52;12.18;;;4.10;99.90;;;;;;5047572;28;20094;-61
2024/03/04 06:27:49;;;;;;;32.08;13.20;;;4.20;99.90;;;;;;5037552;28;20040;-61
2024/03/04 06:30:15;;;;;;;34.85;15.40;;;4.40;99.90;;;;;;5029254;28;20029;-62
2024/03/04 06:32:41;;;;;;;28.85;12.68;;;4.50;99.90;;;;;;5043144;28;20037;-61
2024/03/04 06:35:07;;;;;;;31.52;12.98;;;4.60;99.90;;;;;;5037955;28;20033;-63
2024/03/04 06:37:32;;;;;;;26.60;13.32;;;4.70;99.90;;;;;;5031553;28;20065;-63
2024/03/04 06:39:58;;;;;;;25.88;12.30;;;4.80;99.90;;;;;;5032759;28;20025;-61
2024/03/04 06:42:23;;;;;;;30.38;13.40;;;4.90;99.90;;;;;;5031429;28;20064;-62
2024/03/04 06:44:49;;;;;;;22.73;12.48;;;5.00;99.90;;;;;;5037515;28;20040;-62
2024/03/04 06:47:15;;;;;;;31.00;14.27;;;5.10;99.90;;;;;;5028820;28;20131;-62
2024/03/04 06:49:41;;;;;;;27.90;13.35;;;5.20;99.90;;;;;;5036011;28;20120;-62
2024/03/04 06:52:07;;;;;;;23.05;12.05;;;5.30;99.90;;;;;;5035103;28;20376;-62
2024/03/04 06:54:33;;;;;;;26.75;12.65;;;5.40;99.90;;;;;;5034708;28;20033;-63
2024/03/04 06:56:58;;;;;;;26.88;13.10;;;5.60;99.90;;;;;;5040624;28;20509;-63
2024/03/04 06:59:24;;;;;;;28.95;14.43;;;5.60;99.90;;;;;;5030861;28;20038;-62
2024/03/04 07:01:49;;;;;;;22.67;12.93;;;5.60;99.90;;;;;;5039945;28;20438;-65
2024/03/04 07:04:15;;;;;;;30.02;14.02;;;5.60;99.90;;;;;;5043576;28;20143;-62
2024/03/04 07:06:40;;;;;;;31.02;14.70;;;5.60;99.90;;;;;;5036887;28;20032;-63
2024/03/04 07:09:06;;;;;;;26.85;13.90;;;5.60;99.90;;;;;;5036705;28;20129;-62
2024/03/04 07:11:32;;;;;;;29.48;14.02;;;5.60;99.90;;;;;;5035735;28;20051;-62
2024/03/04 07:13:57;;;;;;;26.85;12.85;;;5.60;99.90;;;;;;5037430;28;20053;-62
2024/03/04 07:16:23;;;;;;;26.33;14.27;;;5.60;99.90;;;;;;5037042;28;20360;-62
2024/03/04 07:18:49;;;;;;;25.92;12.95;;;5.60;99.90;;;;;;5036843;28;20040;-62
2024/03/04 07:21:15;;;;;;;30.92;13.85;;;5.70;99.90;;;;;;5028023;28;20482;-62
2024/03/04 07:23:41;;;;;;;28.63;13.70;;;5.80;99.90;;;;;;5031791;28;20120;-62
2024/03/04 07:26:07;;;;;;;31.52;14.25;;;5.90;99.90;;;;;;5037604;28;20041;-62
2024/03/04 07:28:33;;;;;;;24.98;12.23;;;6.00;99.90;;;;;;5032482;28;20346;-62
2024/03/04 07:30:58;;;;;;;24.98;12.98;;;6.10;99.90;;;;;;5038486;28;20037;-63
2024/03/04 07:33:24;;;;;;;30.83;14.05;;;6.20;99.90;;;;;;5032996;28;20045;-62
2024/03/04 07:35:49;;;;;;;29.83;14.15;;;6.30;99.90;;;;;;5035173;28;20071;-62
2024/03/04 07:38:15;;;;;;;29.35;14.63;;;6.40;99.90;;;;;;5043545;28;20124;-62
2024/03/04 07:40:40;;;;;;;30.05;13.98;;;6.40;99.90;;;;;;5034513;28;20112;-62
2024/03/04 07:43:06;;;;;;;25.90;13.00;;;6.40;99.90;;;;;;5033499;28;20172;-62
2024/03/04 07:45:32;;;;;;;29.40;13.77;;;6.30;99.90;;;;;;5037132;28;20025;-62
2024/03/04 07:47:57;;;;;;;29.80;13.65;;;6.30;99.90;;;;;;5030366;28;20034;-61
2024/03/04 07:50:23;;;;;;;22.90;11.88;;;6.30;99.90;;;;;;5038523;28;20426;-62
2024/03/04 07:52:49;;;;;;;27.35;13.63;;;6.30;99.90;;;;;;5037916;28;20045;-63
2024/03/04 07:55:18;;;;;;;26.40;14.48;;;6.30;99.90;;;;;;5031552;28;20107;-62
2024/03/04 07:57:43;;;;;;;25.73;13.10;;;6.30;99.90;;;;;;5038334;28;20029;-62
2024/03/04 08:00:10;;;;;;;23.27;12.90;;;6.40;99.90;;;;;;5039893;28;20039;-63
2024/03/04 08:02:37;;;;;;;25.95;13.73;;;6.40;99.90;;;;;;5036018;28;20068;-63
2024/03/04 08:05:04;;;;;;;25.27;12.90;;;6.50;99.90;;;;;;5037689;28;20053;-62
2024/03/04 08:07:29;;;;;;;25.00;13.05;;;6.60;99.90;;;;;;5034271;28;20056;-62
2024/03/04 08:09:55;;;;;;;29.98;13.50;;;6.60;99.90;;;;;;5037225;28;20597;-62
2024/03/04 08:12:20;;;;;;;21.50;12.20;;;6.70;99.80;;;;;;5043908;28;20032;-63
2024/03/04 08:14:46;;;;;;;27.75;13.95;;;6.80;99.90;;;;;;5034070;28;20488;-61
2024/03/04 08:17:15;;;;;;;28.88;13.40;;;7.00;99.80;;;;;;5036072;28;20036;-62
2024/03/04 08:19:41;;;;;;;28.10;13.02;;;7.00;99.40;;;;;;5032103;28;20021;-64
2024/03/04 08:22:07;;;;;;;29.85;14.77;;;7.10;99.40;;;;;;5029926;28;20025;-62
2024/03/04 08:24:32;;;;;;;22.58;12.95;;;7.30;99.20;;;;;;5030046;28;20040;-62
2024/03/04 08:26:58;;;;;;;28.42;14.10;;;7.30;98.80;;;;;;5028024;28;20041;-63
2024/03/04 08:29:23;;;;;;;29.42;15.52;;;7.60;98.90;;;;;;5028060;28;20029;-62
2024/03/04 08:31:49;;;;;;;26.45;14.55;;;8.00;98.80;;;;;;5029322;28;20051;-63
2024/03/04 08:34:15;;;;;;;25.02;14.13;;;8.10;98.50;;;;;;5030119;28;20060;-62
2024/03/04 08:36:40;;;;;;;27.35;15.18;;;7.90;97.80;;;;;;5033949;28;20029;-64
2024/03/04 08:39:06;;;;;;;27.95;14.68;;;7.90;97.60;;;;;;5034428;28;20337;-62
2024/03/04 08:41:31;;;;;;;27.33;14.35;;;7.90;97.60;;;;;;5034410;28;20068;-63
2024/03/04 08:43:57;;;;;;;29.13;14.13;;;8.00;97.60;;;;;;5025676;28;20033;-61
2024/03/04 08:46:22;;;;;;;22.75;12.40;;;8.30;97.70;;;;;;5029834;28;20045;-63
2024/03/04 08:48:48;;;;;;;28.25;15.18;;;8.40;97.60;;;;;;5033717;28;20048;-62
2024/03/04 08:51:13;;;;;;;23.48;12.93;;;8.50;97.20;;;;;;5034742;28;20138;-62
2024/03/04 08:53:39;;;;;;;27.48;13.77;;;8.40;96.80;;;;;;5040528;28;20414;-62
2024/03/04 08:56:05;;;;;;;33.92;15.98;;;8.30;96.20;;;;;;5032417;28;20149;-62
2024/03/04 08:58:32;;;;;;;28.23;15.32;;;8.50;96.80;;;;;;5031518;28;20025;-62
2024/03/04 09:00:57;;;;;;;27.65;14.38;;;8.70;96.70;;;;;;5039740;28;20192;-63
2024/03/04 09:03:23;;;;;;;27.13;14.13;;;9.00;96.70;;;;;;5034136;28;20112;-62
2024/03/04 09:05:48;;;;;;;28.50;14.10;;;8.90;95.90;;;;;;5029654;28;20049;-65
2024/03/04 09:08:14;;;;;;;25.63;13.15;;;8.90;95.70;;;;;;5025437;28;20033;-63
2024/03/04 09:10:40;;;;;;;25.15;13.68;;;8.70;95.20;;;;;;5031403;28;20062;-63
2024/03/04 09:13:05;;;;;;;27.20;13.30;;;8.50;95.70;;;;;;5032873;28;20026;-63
2024/03/04 09:15:31;;;;;;;20.98;11.57;;;8.50;95.70;;;;;;5033434;28;20415;-63
2024/03/04 09:17:56;;;;;;;23.33;12.45;;;8.80;96.30;;;;;;5028398;28;20414;-64
2024/03/04 09:20:22;;;;;;;25.98;13.32;;;9.00;96.00;;;;;;5036783;28;20029;-63
2024/03/04 09:22:47;;;;;;;23.90;13.45;;;9.30;96.10;;;;;;5031450;28;20047;-64
2024/03/04 09:25:13;;;;;;;25.98;13.45;;;9.40;95.40;;;;;;5034363;28;20160;-64
2024/03/04 09:27:42;;;;;;;24.27;13.48;;;9.40;94.70;;;;;;5033371;28;20053;-63
2024/03/04 09:30:08;;;;;;;29.10;12.90;;;9.20;94.20;;;;;;5033450;28;20105;-62
2024/03/04 09:32:34;;;;;;;24.20;12.07;;;9.20;94.20;;;;;;5038398;28;20049;-63
2024/03/04 09:34:59;;;;;;;23.17;12.25;;;9.30;94.70;;;;;;5026569;28;20033;-63
2024/03/04 09:37:25;;;;;;;22.00;12.00;;;9.40;94.30;;;;;;5029597;28;20033;-63
2024/03/04 09:39:50;;;;;;;20.65;11.32;;;9.30;94.00;;;;;;5037664;28;20029;-62
2024/03/04 09:42:17;;;;;;;21.77;11.55;;;9.30;93.90;;;;;;5031489;28;20078;-63
2024/03/04 09:44:44;;;;;;;21.20;11.38;;;9.40;94.00;;;;;;5028887;28;20324;-63
2024/03/04 09:47:10;;;;;;;21.05;11.38;;;9.40;93.70;;;;;;5035338;28;20041;-63
2024/03/04 09:49:38;;;;;;;19.95;11.15;;;9.40;93.60;;;;;;5027753;28;20033;-62
2024/03/04 09:52:06;;;;;;;24.35;12.02;;;9.60;93.40;;;;;;5035649;28;20033;-62
2024/03/04 09:54:32;;;;;;;20.48;11.38;;;9.80;93.10;;;;;;5031158;28;20041;-62
2024/03/04 09:56:58;;;;;;;19.85;10.85;;;9.60;92.30;;;;;;5034808;28;20419;-62
2024/03/04 09:59:25;;;;;;;20.08;10.98;;;9.60;92.70;;;;;;5032449;28;20096;-62
2024/03/04 10:01:51;;;;;;;19.58;10.55;;;9.90;92.60;;;;;;5028802;28;20095;-63
2024/03/04 10:04:18;;;;;;;20.30;10.68;;;10.20;92.20;;;;;;5031070;28;20033;-63
2024/03/04 10:06:43;;;;;;;18.75;10.60;;;10.10;91.30;;;;;;5031933;28;20037;-62
2024/03/04 10:09:12;;;;;;;20.60;10.85;;;9.80;91.80;;;;;;5029107;28;20045;-63
2024/03/04 10:11:38;;;;;;;21.05;10.65;;;9.70;91.00;;;;;;5030480;28;20033;-62
2024/03/04 10:14:04;;;;;;;21.63;11.50;;;9.80;92.20;;;;;;5037016;28;20033;-62
2024/03/04 10:16:29;;;;;;;22.92;12.98;;;9.90;91.90;;;;;;5034129;28;20441;-63
2024/03/04 10:19:00;;;;;;;20.17;10.70;;;10.00;91.30;;;;;;5041375;28;20119;-63
2024/03/04 10:21:29;;;;;;;21.20;10.60;;;9.90;91.30;;;;;;5033015;28;20112;-65
2024/03/04 10:23:57;;;;;;;21.42;11.02;;;9.90;91.00;;;;;;5033585;28;20454;-65
2024/03/04 10:26:24;;;;;;;24.25;12.18;;;9.90;91.40;;;;;;5033088;28;20032;-63
2024/03/04 10:28:51;;;;;;;22.02;11.77;;;9.60;91.20;;;;;;5043029;28;20028;-62
2024/03/04 10:31:16;;;;;;;20.98;12.10;;;9.60;91.80;;;;;;5037344;28;20128;-62
2024/03/04 10:33:42;;;;;;;22.67;12.18;;;9.60;91.90;;;;;;5039197;28;20445;-62
2024/03/04 10:36:18;;;;;;;24.10;12.13;;;9.70;92.40;;;;;;5038315;28;20056;-62
2024/03/04 10:38:45;;;;;;;20.63;11.05;;;9.70;91.80;;;;;;5039599;28;20032;-63
2024/03/04 10:41:15;;;;;;;25.08;12.10;;;9.70;92.10;;;;;;5033430;28;20104;-63
2024/03/04 10:43:42;;;;;;;22.92;11.82;;;9.70;92.00;;;;;;5039705;28;20040;-64
2024/03/04 10:46:08;;;;;;;25.77;11.90;;;9.70;92.20;;;;;;5034588;28;20030;-62
2024/03/04 10:48:35;;;;;;;19.85;11.50;;;9.60;92.40;;;;;;5034806;28;20436;-63
2024/03/04 10:51:01;;;;;;;23.40;12.40;;;9.50;92.20;;;;;;5029307;28;20111;-62
2024/03/04 10:53:26;;;;;;;22.60;11.95;;;9.70;92.10;;;;;;5031104;28;20109;-63
2024/03/04 10:55:58;;;;;;;25.20;11.88;;;9.70;91.80;;;;;;5029565;28;20074;-63
2024/03/04 10:58:25;;;;;;;23.20;11.77;;;9.80;91.90;;;;;;5035978;28;20434;-62
2024/03/04 11:00:51;;;;;;;19.10;11.48;;;9.70;91.50;;;;;;5034361;28;20590;-63
2024/03/04 11:03:22;;;;;;;23.27;11.98;;;9.80;91.60;;;;;;5043588;28;20036;-62
2024/03/04 11:05:54;;;;;;;20.13;10.77;;;9.70;91.70;;;;;;5036861;28;20148;-63
2024/03/04 11:08:23;;;;;;;23.40;10.90;;;9.60;92.00;;;;;;5032911;28;20121;-63
2024/03/04 11:11:10;;;;;;;21.70;11.60;;;9.50;92.20;;;;;;5041882;28;20081;-63
2024/03/04 11:14:29;;;;;;;21.77;11.30;;;9.40;92.00;;;;;;5039141;28;20109;-63
2024/03/04 11:17:04;;;;;;;25.42;12.15;;;9.40;92.20;;;;;;5029414;28;20119;-62
2024/03/04 11:19:49;;;;;;;25.70;12.75;;;9.40;92.80;;;;;;5038277;28;20481;-63
2024/03/04 11:22:17;;;;;;;25.90;12.43;;;9.40;92.60;;;;;;5039178;28;20434;-64
2024/03/04 11:24:46;;;;;;;25.00;12.38;;;9.30;92.60;;;;;;5034896;28;20039;-64
2024/03/04 11:27:14;;;;;;;21.15;11.52;;;9.40;92.70;;;;;;5032435;28;20125;-65
2024/03/04 11:29:40;;;;;;;25.63;11.70;;;9.40;92.50;;;;;;5039863;28;20122;-63
2024/03/04 11:32:09;;;;;;;20.67;11.25;;;9.50;92.60;;;;;;5028443;28;20112;-63
2024/03/04 11:35:05;;;;;;;21.90;11.73;;;9.60;92.60;;;;;;5034890;28;20025;-62
2024/03/04 11:37:48;;;;;;;20.70;11.35;;;9.40;92.20;;;;;;5028583;28;20116;-63
2024/03/04 11:40:14;;;;;;;21.42;11.02;;;9.60;92.40;;;;;;5029437;28;20124;-63
2024/03/04 11:42:43;;;;;;;23.30;11.05;;;9.50;92.10;;;;;;5033477;28;20128;-62
2024/03/04 11:45:13;;;;;;;24.20;12.35;;;9.70;92.40;;;;;;5034675;28;20056;-62
2024/03/04 11:47:38;;;;;;;24.42;13.23;;;9.50;92.10;;;;;;5032820;28;20498;-63
2024/03/04 11:50:08;;;;;;;24.02;12.43;;;9.60;92.30;;;;;;5028165;28;20030;-62
2024/03/04 11:52:38;;;;;;;25.92;12.65;;;9.50;92.40;;;;;;5031852;28;20021;-64
2024/03/04 11:55:07;;;;;;;21.10;11.90;;;9.50;92.60;;;;;;5033360;28;20036;-62
2024/03/04 11:57:32;;;;;;;22.80;12.52;;;9.50;92.50;;;;;;5031741;28;20029;-62
2024/03/04 11:59:59;;;;;;;23.38;10.90;;;9.60;92.60;;;;;;5034873;28;20457;-63
2024/03/04 12:02:25;;;;;;;21.55;12.07;;;9.60;92.20;;;;;;5030940;28;20040;-62
2024/03/04 12:04:51;;;;;;;20.05;10.52;;;9.60;92.40;;;;;;5033195;28;20029;-62
2024/03/04 12:07:16;;;;;;;24.38;11.48;;;9.70;92.40;;;;;;5038707;28;20033;-62
2024/03/04 12:09:42;;;;;;;24.20;12.05;;;9.80;91.80;;;;;;5034093;28;20454;-62
2024/03/04 12:12:13;;;;;;;23.25;11.90;;;9.90;91.80;;;;;;5037457;28;20130;-62
2024/03/04 12:14:39;;;;;;;23.83;12.20;;;10.30;91.30;;;;;;5038590;28;20405;-62
2024/03/04 12:17:05;;;;;;;24.10;12.40;;;10.00;90.00;;;;;;5029810;28;20134;-62
2024/03/04 12:19:31;;;;;;;26.17;13.43;;;10.00;90.70;;;;;;5031904;28;20108;-63
2024/03/04 12:21:57;;;;;;;23.75;12.35;;;10.30;90.80;;;;;;5034122;28;20116;-62
2024/03/04 12:24:26;;;;;;;25.23;12.23;;;10.20;91.00;;;;;;5039356;28;20033;-63
2024/03/04 12:26:54;;;;;;;21.50;11.90;;;10.30;90.80;;;;;;5033146;28;20040;-63
2024/03/04 12:29:24;;;;;;;23.65;12.27;;;10.10;90.30;;;;;;5031899;28;20040;-63
2024/03/04 12:31:53;;;;;;;23.52;12.73;;;10.20;90.90;;;;;;5036095;28;20116;-65